createdAt,value
2023-05-19T00:00:37.202Z,103193.13
2023-05-19T00:03:05.063Z,103196.81
2023-05-19T00:05:32.284Z,103197.00
2023-05-19T00:08:01.180Z,103198.94
2023-05-19T00:10:31.633Z,103188.94
2023-05-19T00:12:59.073Z,103189.06
2023-05-19T00:15:26.016Z,103198.16
2023-05-19T00:17:55.319Z,103202.88
2023-05-19T00:20:22.480Z,103193.00
2023-05-19T00:22:49.285Z,103189.25
2023-05-19T00:25:16.116Z,103194.81
2023-05-19T00:27:42.954Z,103186.84
2023-05-19T00:30:09.793Z,103194.97
2023-05-19T00:32:36.514Z,103193.84
2023-05-19T00:35:03.319Z,103192.88
2023-05-19T00:37:30.014Z,103185.00
2023-05-19T00:39:56.768Z,103188.75
2023-05-19T00:42:23.597Z,103187.66
2023-05-19T00:44:50.404Z,103181.31
2023-05-19T00:47:17.089Z,103176.75
2023-05-19T00:49:43.753Z,103179.34
2023-05-19T00:52:10.827Z,103169.53
2023-05-19T00:54:37.526Z,103167.00
2023-05-19T00:57:04.413Z,103176.09
2023-05-19T00:59:31.159Z,103177.00
2023-05-19T01:01:58.094Z,103177.06
2023-05-19T01:04:25.630Z,103181.56
2023-05-19T01:06:55.876Z,103178.75
2023-05-19T01:09:24.381Z,103174.31
2023-05-19T01:11:51.069Z,103181.69
2023-05-19T01:14:22.052Z,103176.34
2023-05-19T01:17:05.452Z,103182.75
2023-05-19T01:20:02.218Z,103179.22
2023-05-19T01:23:00.343Z,103179.31
2023-05-19T01:25:59.458Z,103179.38
2023-05-19T01:28:43.658Z,103182.97
2023-05-19T01:31:12.088Z,103174.03
2023-05-19T01:33:41.549Z,103178.56
2023-05-19T01:36:10.338Z,103177.59
2023-05-19T01:38:38.400Z,103176.72
2023-05-19T01:41:10.145Z,103179.44
2023-05-19T01:43:37.238Z,103182.19
2023-05-19T01:46:05.595Z,103174.06
2023-05-19T01:48:34.859Z,103179.44
2023-05-19T01:51:01.705Z,103178.78
2023-05-19T01:53:28.544Z,103178.97
2023-05-19T01:55:56.833Z,103185.25
2023-05-19T01:58:32.778Z,103192.34
2023-05-19T02:01:11.073Z,103187.81
2023-05-19T02:03:59.145Z,103184.09
2023-05-19T02:06:40.710Z,103188.59
2023-05-19T02:09:22.246Z,103180.53
2023-05-19T02:12:03.096Z,103178.72
2023-05-19T02:14:34.213Z,103183.25
2023-05-19T02:17:03.328Z,103181.47
2023-05-19T02:19:36.913Z,103178.75
2023-05-19T02:22:03.712Z,103181.50
2023-05-19T02:24:30.535Z,103179.66
2023-05-19T02:26:57.223Z,103184.28
2023-05-19T02:29:23.899Z,103180.03
2023-05-19T02:31:50.941Z,103178.28
2023-05-19T02:34:17.745Z,103183.66
2023-05-19T02:36:44.660Z,103185.38
2023-05-19T02:39:11.993Z,103188.94
2023-05-19T02:41:39.378Z,103187.09
2023-05-19T02:44:06.181Z,103187.25
2023-05-19T02:46:33.106Z,103180.94
2023-05-19T02:49:03.013Z,103192.59
2023-05-19T02:51:29.845Z,103182.75
2023-05-19T02:53:56.647Z,103189.09
2023-05-19T02:56:23.430Z,103185.41
2023-05-19T02:58:50.751Z,103187.25
2023-05-19T03:01:17.641Z,103193.53
2023-05-19T03:03:44.446Z,103184.53
2023-05-19T03:06:11.294Z,103183.66
2023-05-19T03:08:39.395Z,103185.53
2023-05-19T03:11:08.351Z,103181.97
2023-05-19T03:13:35.652Z,103181.09
2023-05-19T03:16:03.931Z,103182.88
2023-05-19T03:18:30.764Z,103170.31
2023-05-19T03:20:57.556Z,103167.59
2023-05-19T03:23:24.286Z,103171.13
2023-05-19T03:25:56.721Z,103173.75
2023-05-19T03:28:23.501Z,103175.44
2023-05-19T03:30:50.873Z,103167.41
2023-05-19T03:33:17.909Z,103166.50
2023-05-19T03:35:44.836Z,103166.41
2023-05-19T03:38:11.731Z,103167.16
2023-05-19T03:40:38.823Z,103174.19
2023-05-19T03:43:05.568Z,103176.78
2023-05-19T03:45:35.618Z,103176.75
2023-05-19T03:48:03.879Z,103173.97
2023-05-19T03:50:31.703Z,103166.81
2023-05-19T03:52:58.687Z,103164.06
2023-05-19T03:55:25.857Z,103166.63
2023-05-19T03:57:54.169Z,103155.75
2023-05-19T04:00:20.966Z,103156.31
2023-05-19T04:02:47.868Z,103155.78
2023-05-19T04:05:14.830Z,103156.53
2023-05-19T04:07:41.704Z,103156.06
2023-05-19T04:10:08.856Z,103166.84
2023-05-19T04:12:35.641Z,103151.53
2023-05-19T04:15:02.431Z,103153.22
2023-05-19T04:17:29.443Z,103153.06
2023-05-19T04:19:56.210Z,103156.44
2023-05-19T04:22:23.008Z,103164.31
2023-05-19T04:24:51.710Z,103158.81
2023-05-19T04:27:22.955Z,103156.47
2023-05-19T04:29:50.043Z,103161.75
2023-05-19T04:32:19.483Z,103164.00
2023-05-19T04:34:46.268Z,103149.44
2023-05-19T04:37:14.154Z,103154.50
2023-05-19T04:39:45.285Z,103164.66
2023-05-19T04:42:13.370Z,103164.47
2023-05-19T04:44:40.407Z,103158.28
2023-05-19T04:47:08.915Z,103161.59
2023-05-19T04:49:38.956Z,103166.69
2023-05-19T04:52:11.022Z,103169.22
2023-05-19T04:54:38.992Z,103168.06
2023-05-19T04:57:06.165Z,103168.72
2023-05-19T04:59:33.100Z,103163.06
2023-05-19T05:01:59.989Z,103170.91
2023-05-19T05:04:26.875Z,103164.34
2023-05-19T05:06:53.617Z,103171.13
2023-05-19T05:09:22.569Z,103160.06
2023-05-19T05:11:49.515Z,103166.97
2023-05-19T05:14:16.557Z,103161.84
2023-05-19T05:16:43.685Z,103149.91
2023-05-19T05:19:10.814Z,103150.06
2023-05-19T05:21:37.764Z,103154.34
2023-05-19T05:24:04.776Z,103151.22
2023-05-19T05:26:33.934Z,103150.88
2023-05-19T05:29:00.783Z,103151.31
2023-05-19T05:31:27.851Z,103157.97
2023-05-19T05:33:54.610Z,103155.69
2023-05-19T05:36:21.692Z,103153.72
2023-05-19T05:38:49.106Z,103153.53
2023-05-19T05:41:16.070Z,103152.56
2023-05-19T05:43:42.801Z,103147.97
2023-05-19T05:46:09.596Z,103149.97
2023-05-19T05:48:36.705Z,103145.91
2023-05-19T05:51:03.877Z,103150.00
2023-05-19T05:53:32.299Z,103144.16
2023-05-19T05:55:59.291Z,103144.56
2023-05-19T05:58:26.039Z,103144.22
2023-05-19T06:00:53.477Z,103145.34
2023-05-19T06:03:24.591Z,103145.53
2023-05-19T06:05:51.594Z,103143.22
2023-05-19T06:08:18.442Z,103148.31
2023-05-19T06:10:47.261Z,103144.44
2023-05-19T06:13:16.324Z,103140.75
2023-05-19T06:15:43.082Z,103143.09
2023-05-19T06:18:09.914Z,103150.22
2023-05-19T06:20:36.690Z,103151.56
2023-05-19T06:23:03.820Z,103145.59
2023-05-19T06:25:30.770Z,103141.91
2023-05-19T06:27:57.652Z,103137.97
2023-05-19T06:30:24.361Z,103139.94
2023-05-19T06:32:51.307Z,103141.78
2023-05-19T06:35:18.023Z,103132.66
2023-05-19T06:37:44.802Z,103139.22
2023-05-19T06:40:12.337Z,103143.56
2023-05-19T06:42:40.142Z,103137.75
2023-05-19T06:45:07.540Z,103142.72
2023-05-19T06:47:34.261Z,103141.47
2023-05-19T06:50:01.092Z,103128.66
2023-05-19T06:52:34.203Z,103116.66
2023-05-19T06:55:00.992Z,103100.34
2023-05-19T06:57:27.665Z,103096.38
2023-05-19T06:59:54.418Z,103099.41
2023-05-19T07:02:21.072Z,103107.00
2023-05-19T07:04:47.773Z,103100.63
2023-05-19T07:07:14.556Z,103104.72
2023-05-19T07:09:41.355Z,103089.91
2023-05-19T07:12:08.036Z,103083.75
2023-05-19T07:14:36.504Z,103073.56
2023-05-19T07:17:03.375Z,103086.78
2023-05-19T07:19:30.165Z,103114.63
2023-05-19T07:21:59.557Z,103107.38
2023-05-19T07:24:27.528Z,103103.06
2023-05-19T07:26:54.322Z,103110.50
2023-05-19T07:29:21.024Z,103111.47
2023-05-19T07:31:47.916Z,103103.88
2023-05-19T07:34:14.614Z,103099.00
2023-05-19T07:36:41.569Z,103096.03
2023-05-19T07:39:09.545Z,103072.47
2023-05-19T07:41:36.594Z,103078.66
2023-05-19T07:44:07.532Z,103064.25
2023-05-19T07:46:37.883Z,103068.25
2023-05-19T07:49:04.751Z,103053.97
2023-05-19T07:51:31.818Z,103041.63
2023-05-19T07:53:58.631Z,103069.25
2023-05-19T07:56:25.404Z,103060.41
2023-05-19T07:58:52.103Z,103050.56
2023-05-19T08:01:18.953Z,103058.22
2023-05-19T08:03:45.817Z,103062.56
2023-05-19T08:06:12.598Z,103056.53
2023-05-19T08:08:39.528Z,103078.19
2023-05-19T08:11:06.682Z,103062.59
2023-05-19T08:13:34.683Z,103064.38
2023-05-19T08:16:02.333Z,103013.19
2023-05-19T08:18:29.431Z,102994.78
2023-05-19T08:20:56.361Z,103005.94
2023-05-19T08:23:23.044Z,103012.19
2023-05-19T08:25:49.724Z,103012.75
2023-05-19T08:28:16.672Z,102995.41
2023-05-19T08:30:43.628Z,102997.69
2023-05-19T08:33:10.719Z,103002.28
2023-05-19T08:35:38.001Z,103008.31
2023-05-19T08:38:04.743Z,103033.75
2023-05-19T08:40:33.614Z,103017.72
2023-05-19T08:43:00.652Z,103077.16
2023-05-19T08:45:27.852Z,103090.84
2023-05-19T08:47:54.792Z,103085.38
2023-05-19T08:50:29.060Z,103079.09
2023-05-19T08:53:25.034Z,103080.78
2023-05-19T08:56:14.343Z,103063.47
2023-05-19T08:58:44.002Z,103057.41
2023-05-19T09:01:14.561Z,103046.34
2023-05-19T09:03:42.970Z,103034.09
2023-05-19T09:06:13.666Z,103005.47
2023-05-19T09:08:42.550Z,102994.03
2023-05-19T09:11:10.139Z,102977.03
2023-05-19T09:13:37.058Z,102984.19
2023-05-19T09:16:03.997Z,102962.34
2023-05-19T09:18:31.498Z,102941.03
2023-05-19T09:21:00.635Z,102926.94
2023-05-19T09:23:29.887Z,102966.84
2023-05-19T09:25:57.448Z,102993.66
2023-05-19T09:28:29.479Z,102999.97
2023-05-19T09:31:14.460Z,102982.53
2023-05-19T09:33:45.533Z,102997.81
2023-05-19T09:36:12.843Z,102991.03
2023-05-19T09:38:40.051Z,102970.63
2023-05-19T09:41:10.431Z,102993.13
2023-05-19T09:43:37.184Z,102992.06
2023-05-19T09:46:08.116Z,102980.25
2023-05-19T09:48:36.457Z,102983.59
2023-05-19T09:51:10.239Z,103004.22
2023-05-19T09:53:37.029Z,103003.19
2023-05-19T09:56:04.196Z,102974.38
2023-05-19T09:58:35.346Z,102984.03
2023-05-19T10:01:03.689Z,103001.09
2023-05-19T10:03:35.597Z,103022.66
2023-05-19T10:06:07.039Z,103000.09
2023-05-19T10:08:34.500Z,102989.91
2023-05-19T10:11:02.100Z,102974.13
2023-05-19T10:13:29.737Z,102979.88
2023-05-19T10:15:59.625Z,102959.59
2023-05-19T10:18:30.262Z,102938.69
2023-05-19T10:20:58.066Z,102951.44
2023-05-19T10:23:25.784Z,102936.72
2023-05-19T10:25:57.600Z,102924.75
2023-05-19T10:28:28.429Z,102948.72
2023-05-19T10:31:00.440Z,102942.19
2023-05-19T10:33:51.439Z,102932.03
2023-05-19T10:36:26.999Z,102933.28
2023-05-19T10:39:01.057Z,102964.28
2023-05-19T10:42:04.127Z,102965.59
2023-05-19T10:45:04.941Z,102968.59
2023-05-19T10:47:32.523Z,102942.75
2023-05-19T10:50:01.335Z,102938.97
2023-05-19T10:52:30.956Z,102950.34
2023-05-19T10:54:58.274Z,102941.69
2023-05-19T10:57:28.552Z,102936.97
2023-05-19T10:59:57.203Z,102932.91
2023-05-19T11:02:44.122Z,102961.56
2023-05-19T11:05:14.270Z,102960.38
2023-05-19T11:07:42.829Z,102980.19
2023-05-19T11:10:10.120Z,102968.78
2023-05-19T11:12:45.853Z,102959.88
2023-05-19T11:15:15.177Z,102988.41
2023-05-19T11:17:43.273Z,102983.66
2023-05-19T11:20:22.900Z,102983.91
2023-05-19T11:23:18.480Z,102997.16
2023-05-19T11:25:50.103Z,103005.84
2023-05-19T11:28:25.654Z,102992.38
2023-05-19T11:30:55.290Z,102991.25
2023-05-19T11:33:27.140Z,102982.72
2023-05-19T11:35:58.103Z,102973.34
2023-05-19T11:38:25.421Z,102997.41
2023-05-19T11:40:56.327Z,102985.66
2023-05-19T11:43:24.713Z,102988.72
2023-05-19T11:45:52.131Z,102960.94
2023-05-19T11:48:21.665Z,102978.81
2023-05-19T11:50:48.760Z,102977.25
2023-05-19T11:53:19.858Z,102960.41
2023-05-19T11:55:48.104Z,102940.63
2023-05-19T11:58:15.907Z,102954.25
2023-05-19T12:00:46.302Z,102928.16
2023-05-19T12:03:13.489Z,102939.53
2023-05-19T12:05:47.823Z,102915.38
2023-05-19T12:08:17.806Z,102942.91
2023-05-19T12:10:48.406Z,102921.63
2023-05-19T12:13:15.189Z,102918.13
2023-05-19T12:15:41.928Z,102937.22
2023-05-19T12:18:08.770Z,102909.97
2023-05-19T12:20:36.157Z,102935.44
2023-05-19T12:23:04.097Z,102912.66
2023-05-19T12:25:32.090Z,102911.59
2023-05-19T12:28:00.387Z,102896.41
2023-05-19T12:30:32.810Z,102919.50
2023-05-19T12:33:01.889Z,102901.97
2023-05-19T12:35:32.110Z,102891.78
2023-05-19T12:38:04.168Z,102913.00
2023-05-19T12:40:31.164Z,102922.16
2023-05-19T12:42:59.331Z,102905.19
2023-05-19T12:45:28.336Z,102918.06
2023-05-19T12:47:56.130Z,102911.03
2023-05-19T12:50:31.037Z,102908.63
2023-05-19T12:52:59.729Z,102938.66
2023-05-19T12:55:26.581Z,102968.81
2023-05-19T12:57:59.303Z,102937.41
2023-05-19T13:00:28.998Z,102938.75
2023-05-19T13:03:08.411Z,102939.13
2023-05-19T13:05:40.114Z,102939.59
2023-05-19T13:08:09.157Z,102978.53
2023-05-19T13:10:38.415Z,102974.16
2023-05-19T13:13:06.010Z,102987.44
2023-05-19T13:15:35.369Z,102967.41
2023-05-19T13:18:03.891Z,102954.72
2023-05-19T13:20:30.953Z,102914.22
2023-05-19T13:22:57.862Z,102917.03
2023-05-19T13:25:24.897Z,102908.06
2023-05-19T13:27:51.638Z,102902.09
2023-05-19T13:30:19.280Z,102927.38
2023-05-19T13:32:46.099Z,102929.78
2023-05-19T13:35:16.409Z,102913.09
2023-05-19T13:37:43.527Z,102925.25
2023-05-19T13:40:11.263Z,102935.03
2023-05-19T13:42:38.354Z,102933.00
2023-05-19T13:45:05.785Z,102919.97
2023-05-19T13:47:32.633Z,102938.09
2023-05-19T13:50:02.546Z,102936.13
2023-05-19T13:52:30.494Z,102926.09
2023-05-19T13:54:57.688Z,102940.22
2023-05-19T13:57:25.537Z,102929.13
2023-05-19T14:00:01.807Z,102960.91
2023-05-19T14:02:30.011Z,102957.97
2023-05-19T14:04:57.519Z,102947.38
2023-05-19T14:07:24.320Z,102950.94
2023-05-19T14:09:52.354Z,102947.09
2023-05-19T14:12:20.183Z,102931.75
2023-05-19T14:14:49.088Z,102966.72
2023-05-19T14:17:15.907Z,102966.84
2023-05-19T14:19:42.845Z,102980.03
2023-05-19T14:22:09.567Z,102971.56
2023-05-19T14:24:36.275Z,102977.03
2023-05-19T14:27:02.957Z,102968.06
2023-05-19T14:29:31.125Z,102984.06
2023-05-19T14:31:58.086Z,102975.25
2023-05-19T14:34:24.955Z,102973.41
2023-05-19T14:36:51.921Z,102978.72
2023-05-19T14:39:18.751Z,102973.63
2023-05-19T14:41:45.537Z,102998.19
2023-05-19T14:44:12.197Z,102996.63
2023-05-19T14:46:38.966Z,102993.22
2023-05-19T14:49:06.532Z,102983.50
2023-05-19T14:51:33.416Z,102982.44
2023-05-19T14:54:02.214Z,102992.06
2023-05-19T14:56:30.314Z,102982.13
2023-05-19T14:58:56.988Z,102990.19
2023-05-19T15:01:23.768Z,102979.69
2023-05-19T15:03:50.573Z,102979.59
2023-05-19T15:06:17.253Z,102986.06
2023-05-19T15:08:44.447Z,102970.94
2023-05-19T15:11:11.143Z,102985.66
2023-05-19T15:13:37.956Z,102970.53
2023-05-19T15:16:16.167Z,102951.53
2023-05-19T15:18:44.700Z,102959.00
2023-05-19T15:21:11.646Z,102973.03
2023-05-19T15:23:38.335Z,102971.63
2023-05-19T15:26:05.131Z,102963.69
2023-05-19T15:28:32.305Z,102951.94
2023-05-19T15:30:59.230Z,102925.66
2023-05-19T15:33:26.400Z,102903.72
2023-05-19T15:35:53.308Z,102921.09
2023-05-19T15:38:20.423Z,102912.06
2023-05-19T15:40:47.233Z,102904.19
2023-05-19T15:43:14.239Z,102928.22
2023-05-19T15:45:41.233Z,102929.13
2023-05-19T15:48:08.379Z,102954.59
2023-05-19T15:50:35.782Z,102953.63
2023-05-19T15:53:02.794Z,102953.41
2023-05-19T15:55:29.572Z,102953.03
2023-05-19T15:57:56.352Z,102951.66
2023-05-19T16:00:23.667Z,102949.50
2023-05-19T16:02:50.646Z,102965.69
2023-05-19T16:05:19.777Z,102955.56
2023-05-19T16:07:46.479Z,102966.84
2023-05-19T16:10:15.788Z,102963.59
2023-05-19T16:12:42.487Z,102968.09
2023-05-19T16:15:09.706Z,102974.31
2023-05-19T16:17:36.437Z,102976.06
2023-05-19T16:20:03.959Z,102975.19
2023-05-19T16:22:30.601Z,102974.22
2023-05-19T16:24:57.323Z,102966.53
2023-05-19T16:27:24.131Z,102966.94
2023-05-19T16:29:51.296Z,102983.59
2023-05-19T16:32:17.979Z,102988.59
2023-05-19T16:34:44.673Z,102971.38
2023-05-19T16:37:11.329Z,102963.53
2023-05-19T16:39:38.122Z,102957.91
2023-05-19T16:42:06.455Z,102961.16
2023-05-19T16:44:33.258Z,102950.19
2023-05-19T16:47:00.026Z,102947.91
2023-05-19T16:49:26.780Z,102945.19
2023-05-19T16:51:54.215Z,102934.00
2023-05-19T16:54:21.382Z,102948.09
2023-05-19T16:56:48.136Z,102952.22
2023-05-19T16:59:14.953Z,102951.22
2023-05-19T17:01:41.858Z,102956.13
2023-05-19T17:04:09.555Z,102948.88
2023-05-19T17:06:36.346Z,102946.22
2023-05-19T17:09:03.798Z,102933.59
2023-05-19T17:11:30.722Z,102933.84
2023-05-19T17:13:59.248Z,102942.22
2023-05-19T17:16:27.335Z,102944.19
2023-05-19T17:18:54.132Z,102945.84
2023-05-19T17:21:22.063Z,102957.31
2023-05-19T17:23:50.080Z,102955.56
2023-05-19T17:26:17.134Z,102959.66
2023-05-19T17:28:43.873Z,102960.69
2023-05-19T17:31:14.446Z,102963.19
2023-05-19T17:33:41.611Z,102962.78
2023-05-19T17:36:09.011Z,102961.34
2023-05-19T17:38:40.050Z,102949.13
2023-05-19T17:41:10.936Z,102962.81
2023-05-19T17:43:38.305Z,102962.03
2023-05-19T17:46:05.538Z,102974.09
2023-05-19T17:48:32.938Z,102956.59
2023-05-19T17:51:00.607Z,102965.03
2023-05-19T17:53:27.693Z,102982.97
2023-05-19T17:55:59.705Z,102993.19
2023-05-19T17:58:27.069Z,102996.28
2023-05-19T18:00:54.894Z,102996.47
2023-05-19T18:03:24.913Z,102999.59
2023-05-19T18:05:51.973Z,102998.06
2023-05-19T18:08:19.139Z,102984.09
2023-05-19T18:10:49.409Z,102985.91
2023-05-19T18:13:16.151Z,102998.69
2023-05-19T18:15:42.994Z,102998.00
2023-05-19T18:18:10.927Z,103000.81
2023-05-19T18:20:44.213Z,103007.19
2023-05-19T18:23:11.358Z,102998.25
2023-05-19T18:25:38.172Z,102983.88
2023-05-19T18:28:06.026Z,102991.81
2023-05-19T18:30:36.153Z,102994.47
2023-05-19T18:33:03.926Z,102992.59
2023-05-19T18:35:31.072Z,102998.41
2023-05-19T18:37:57.817Z,102994.28
2023-05-19T18:40:27.622Z,102996.75
2023-05-19T18:42:54.918Z,102997.28
2023-05-19T18:45:21.606Z,102996.72
2023-05-19T18:47:48.426Z,102999.13
2023-05-19T18:50:15.339Z,103013.00
2023-05-19T18:52:41.987Z,103012.13
2023-05-19T18:55:09.318Z,103000.13
2023-05-19T18:57:36.116Z,103006.56
2023-05-19T19:00:04.324Z,103013.28
2023-05-19T19:02:31.367Z,103023.16
2023-05-19T19:05:01.535Z,103028.25
2023-05-19T19:07:28.420Z,103023.97
2023-05-19T19:09:55.112Z,103030.41
2023-05-19T19:12:21.833Z,103028.19
2023-05-19T19:14:48.639Z,103034.19
2023-05-19T19:17:15.429Z,103040.09
2023-05-19T19:19:42.542Z,103040.75
2023-05-19T19:22:09.375Z,103037.38
2023-05-19T19:24:36.119Z,103041.41
2023-05-19T19:27:05.434Z,103041.81
2023-05-19T19:29:32.086Z,103055.16
2023-05-19T19:31:58.944Z,103047.50
2023-05-19T19:34:25.737Z,103043.94
2023-05-19T19:36:54.546Z,103040.06
2023-05-19T19:39:21.197Z,103046.06
2023-05-19T19:41:47.952Z,103054.28
2023-05-19T19:44:14.699Z,103054.94
2023-05-19T19:46:41.520Z,103059.81
2023-05-19T19:49:10.945Z,103059.22
2023-05-19T19:51:37.641Z,103059.44
2023-05-19T19:54:07.220Z,103060.53
2023-05-19T19:56:33.995Z,103057.81
2023-05-19T19:59:01.471Z,103067.47
2023-05-19T20:01:28.298Z,103073.81
2023-05-19T20:03:57.682Z,103076.09
2023-05-19T20:06:24.576Z,103079.16
2023-05-19T20:08:51.327Z,103087.94
2023-05-19T20:11:18.436Z,103090.44
2023-05-19T20:13:45.114Z,103089.38
2023-05-19T20:16:32.511Z,103082.59
2023-05-19T20:18:59.447Z,103084.34
2023-05-19T20:21:26.404Z,103082.00
2023-05-19T20:23:53.347Z,103083.47
2023-05-19T20:26:20.650Z,103083.25
2023-05-19T20:28:50.732Z,103088.34
2023-05-19T20:31:18.042Z,103089.47
2023-05-19T20:33:45.213Z,103093.56
2023-05-19T20:36:12.463Z,103094.84
2023-05-19T20:38:39.184Z,103099.06
2023-05-19T20:41:06.065Z,103098.06
2023-05-19T20:43:33.316Z,103100.66
2023-05-19T20:46:01.448Z,103100.00
2023-05-19T20:48:28.294Z,103109.13
2023-05-19T20:50:55.032Z,103105.47
2023-05-19T20:53:22.072Z,103115.06
2023-05-19T20:55:48.884Z,103124.66
2023-05-19T20:58:18.035Z,103122.00
2023-05-19T21:00:44.812Z,103115.16
2023-05-19T21:03:11.869Z,103119.09
2023-05-19T21:05:38.729Z,103116.53
2023-05-19T21:08:05.542Z,103113.38
2023-05-19T21:10:32.544Z,103115.38
2023-05-19T21:12:59.679Z,103110.16
2023-05-19T21:15:27.221Z,103118.16
2023-05-19T21:17:54.090Z,103115.44
2023-05-19T21:20:21.074Z,103125.41
2023-05-19T21:22:48.077Z,103121.78
2023-05-19T21:25:16.976Z,103128.34
2023-05-19T21:27:46.039Z,103117.44
2023-05-19T21:30:13.877Z,103121.69
2023-05-19T21:32:40.853Z,103117.53
2023-05-19T21:35:08.141Z,103124.06
2023-05-19T21:37:35.029Z,103126.38
2023-05-19T21:40:01.914Z,103124.66
2023-05-19T21:42:29.016Z,103129.63
2023-05-19T21:44:57.596Z,103129.38
2023-05-19T21:47:24.346Z,103127.81
2023-05-19T21:49:51.108Z,103136.81
2023-05-19T21:52:19.160Z,103132.56
2023-05-19T21:54:45.921Z,103132.63
2023-05-19T21:57:12.723Z,103123.94
2023-05-19T21:59:39.540Z,103127.47
2023-05-19T22:02:06.558Z,103133.66
2023-05-19T22:04:33.662Z,103124.91
2023-05-19T22:07:00.610Z,103128.38
2023-05-19T22:09:30.405Z,103124.91
2023-05-19T22:11:57.151Z,103118.78
2023-05-19T22:14:23.889Z,103118.38
2023-05-19T22:16:50.816Z,103117.25
2023-05-19T22:19:18.176Z,103117.19
2023-05-19T22:21:45.172Z,103116.38
2023-05-19T22:24:11.958Z,103117.84
2023-05-19T22:26:42.828Z,103119.84
2023-05-19T22:29:14.939Z,103112.13
2023-05-19T22:31:42.139Z,103120.03
2023-05-19T22:34:08.960Z,103124.81
2023-05-19T22:36:35.992Z,103129.59
2023-05-19T22:39:03.865Z,103121.13
2023-05-19T22:41:30.734Z,103126.97
2023-05-19T22:43:57.511Z,103128.34
2023-05-19T22:46:24.352Z,103127.34
2023-05-19T22:48:51.161Z,103137.94
2023-05-19T22:51:18.825Z,103143.34
2023-05-19T22:53:46.772Z,103135.66
2023-05-19T22:56:13.478Z,103134.47
2023-05-19T22:58:40.307Z,103137.00
2023-05-19T23:01:07.083Z,103133.81
2023-05-19T23:03:33.912Z,103146.38
2023-05-19T23:06:00.956Z,103154.09
2023-05-19T23:08:27.859Z,103151.66
2023-05-19T23:10:59.914Z,103154.53
2023-05-19T23:13:26.649Z,103151.34
2023-05-19T23:15:53.427Z,103147.13
2023-05-19T23:18:20.167Z,103151.28
2023-05-19T23:20:46.954Z,103154.94
2023-05-19T23:23:13.663Z,103154.59
2023-05-19T23:25:40.498Z,103146.41
2023-05-19T23:28:10.177Z,103152.91
2023-05-19T23:30:38.076Z,103151.72
2023-05-19T23:33:04.969Z,103145.72
2023-05-19T23:35:32.029Z,103146.72
2023-05-19T23:37:58.940Z,103150.06
2023-05-19T23:40:25.740Z,103154.75
2023-05-19T23:42:52.471Z,103159.28
2023-05-19T23:45:19.401Z,103152.88
2023-05-19T23:47:46.257Z,103147.38
2023-05-19T23:50:13.103Z,103153.41
2023-05-19T23:52:39.833Z,103150.72
2023-05-19T23:55:07.462Z,103153.06
2023-05-19T23:57:34.162Z,103149.28
